Time;durP1;ratioP1;P1;durP2;ratioP2;P2;SDS_P1;SDS_P2;PMS_P1;PMS_P2;Temp;Humidity;BMP_temperature;BMP_pressure;BME280_temperature;BME280_humidity;BME280_pressure;Samples;Min_cycle;Max_cycle;Signal;HPM_P1;HPM_P2
2021/05/10 00:01:56;;;;;;;2.20;1.97;;;20.70;70.90;;;;;;5142901;28;20445;-39
2021/05/10 00:04:26;;;;;;;2.30;2.10;;;20.90;72.60;;;;;;5142862;28;20550;-41
2021/05/10 00:06:56;;;;;;;3.90;3.60;;;20.70;73.40;;;;;;5135460;28;20480;-40
2021/05/10 00:09:26;;;;;;;2.23;2.13;;;20.80;74.30;;;;;;5143282;28;20513;-40
2021/05/10 00:11:56;;;;;;;2.10;2.00;;;20.80;73.80;;;;;;5140815;27;20479;-40
2021/05/10 00:14:39;;;;;;;2.10;1.90;;;20.80;72.80;;;;;;5143307;27;20542;-40
2021/05/10 00:17:10;;;;;;;1.60;1.50;;;20.70;71.60;;;;;;5141206;27;20439;-40
2021/05/10 00:19:40;;;;;;;2.60;1.80;;;20.70;73.40;;;;;;5147464;27;20506;-38
2021/05/10 00:22:10;;;;;;;1.63;1.53;;;20.70;71.30;;;;;;5147091;27;20479;-39
2021/05/10 00:24:40;;;;;;;2.00;1.70;;;20.40;72.80;;;;;;5147673;27;20855;-38
2021/05/10 00:27:10;;;;;;;1.73;1.63;;;20.30;74.20;;;;;;5146292;27;20426;-40
2021/05/10 00:29:40;;;;;;;1.93;1.83;;;20.30;75.10;;;;;;5147611;27;20798;-39
2021/05/10 00:32:11;;;;;;;1.70;1.60;;;20.20;72.80;;;;;;5146682;27;20956;-39
2021/05/10 00:34:41;;;;;;;1.47;1.37;;;20.10;72.20;;;;;;5146568;27;20449;-37
2021/05/10 00:37:11;;;;;;;3.10;1.50;;;20.20;71.20;;;;;;5146785;27;20486;-39
2021/05/10 00:39:42;;;;;;;1.40;1.30;;;20.00;70.30;;;;;;5146944;27;20423;-39
2021/05/10 00:42:12;;;;;;;2.00;1.47;;;20.00;70.60;;;;;;5144934;27;20456;-40
2021/05/10 00:44:42;;;;;;;1.93;1.83;;;19.90;70.20;;;;;;5143673;27;20541;-38
2021/05/10 00:47:15;;;;;;;1.70;1.60;;;19.80;70.60;;;;;;5145240;27;20529;-39
2021/05/10 00:49:45;;;;;;;1.57;1.47;;;19.70;71.10;;;;;;5146932;27;20842;-39
2021/05/10 00:52:15;;;;;;;1.57;1.17;;;19.50;73.70;;;;;;5146751;27;20895;-39
2021/05/10 00:54:45;;;;;;;1.30;1.20;;;19.50;67.60;;;;;;5147028;27;20497;-41
2021/05/10 00:57:15;;;;;;;1.10;0.90;;;19.40;68.50;;;;;;5144254;27;20550;-39
2021/05/10 00:59:46;;;;;;;1.30;1.20;;;19.30;68.80;;;;;;5146921;27;20449;-41
2021/05/10 01:02:17;;;;;;;1.83;1.67;;;19.20;69.60;;;;;;5146193;27;20460;-41
2021/05/10 01:04:47;;;;;;;2.37;1.60;;;19.20;72.20;;;;;;5145693;27;20466;-38
2021/05/10 01:07:17;;;;;;;1.53;1.43;;;19.20;75.10;;;;;;5146595;27;20412;-41
2021/05/10 01:09:47;;;;;;;1.97;1.30;;;19.20;74.50;;;;;;5146417;27;20539;-39
2021/05/10 01:12:17;;;;;;;2.17;1.53;;;19.10;74.80;;;;;;5145420;27;20427;-40
2021/05/10 01:14:48;;;;;;;1.77;1.40;;;19.10;75.70;;;;;;5146807;27;20453;-40
2021/05/10 01:17:20;;;;;;;1.50;1.40;;;19.00;76.20;;;;;;5145069;27;20449;-39
2021/05/10 01:19:50;;;;;;;2.17;1.80;;;18.90;78.40;;;;;;5146782;27;20440;-40
2021/05/10 01:22:21;;;;;;;1.30;1.20;;;19.00;78.20;;;;;;5145443;27;21116;-40
2021/05/10 01:24:53;;;;;;;1.00;1.00;;;19.20;79.00;;;;;;5146082;27;20491;-39
2021/05/10 01:27:23;;;;;;;1.73;1.50;;;19.10;78.80;;;;;;5141498;27;20854;-39
2021/05/10 01:29:55;;;;;;;1.80;0.90;;;19.20;79.40;;;;;;5143099;27;20553;-38
2021/05/10 01:32:25;;;;;;;3.20;1.07;;;19.20;78.70;;;;;;5145267;27;20419;-38
2021/05/10 01:34:55;;;;;;;3.60;1.50;;;19.20;78.10;;;;;;5145951;27;20505;-40
2021/05/10 01:37:26;;;;;;;1.43;1.33;;;19.10;78.50;;;;;;5143926;27;20452;-38
2021/05/10 01:39:57;;;;;;;1.70;1.37;;;18.90;79.50;;;;;;5146112;27;20445;-38
2021/05/10 01:42:27;;;;;;;1.80;1.40;;;18.80;80.10;;;;;;5128216;27;20519;-40
2021/05/10 01:44:58;;;;;;;2.13;1.27;;;18.70;80.90;;;;;;5143654;27;20465;-38
2021/05/10 01:47:29;;;;;;;1.40;1.30;;;18.70;81.70;;;;;;5145722;27;20411;-36
2021/05/10 01:49:59;;;;;;;1.23;1.13;;;18.70;82.70;;;;;;5146675;27;20466;-40
2021/05/10 01:52:29;;;;;;;2.20;1.57;;;18.60;82.80;;;;;;5144789;27;20449;-39
2021/05/10 01:55:01;;;;;;;1.47;1.37;;;18.60;84.90;;;;;;5145172;27;20449;-40
2021/05/10 01:57:31;;;;;;;1.13;1.03;;;18.50;85.90;;;;;;5143564;27;20473;-40
2021/05/10 02:00:01;;;;;;;1.40;1.30;;;18.50;87.70;;;;;;5143227;27;20452;-39
2021/05/10 02:02:30;;;;;;;1.50;1.40;;;18.60;86.70;;;;;;5144535;27;20437;-39
2021/05/10 02:05:15;;;;;;;1.50;1.40;;;18.50;88.00;;;;;;5145936;27;20476;-37
2021/05/10 02:07:47;;;;;;;1.33;1.23;;;18.60;87.20;;;;;;5145028;27;20440;-41
2021/05/10 02:10:19;;;;;;;1.63;1.53;;;18.50;85.90;;;;;;5145560;27;20434;-40
2021/05/10 02:12:57;;;;;;;2.07;1.87;;;18.50;84.60;;;;;;5136918;27;20523;-40
2021/05/10 02:15:29;;;;;;;1.90;1.80;;;18.50;85.10;;;;;;5142487;27;20974;-40
2021/05/10 02:17:59;;;;;;;2.60;2.37;;;18.30;88.00;;;;;;5144849;27;20429;-38
2021/05/10 02:20:29;;;;;;;3.93;1.90;;;18.20;89.60;;;;;;5145420;27;20476;-40
2021/05/10 02:23:01;;;;;;;2.40;2.20;;;18.10;90.10;;;;;;5144744;27;20489;-40
2021/05/10 02:25:34;;;;;;;2.50;2.30;;;18.10;90.80;;;;;;5144803;27;20532;-40
2021/05/10 02:28:07;;;;;;;2.40;2.20;;;17.90;91.50;;;;;;5144212;27;20445;-37
2021/05/10 02:30:38;;;;;;;2.80;2.23;;;17.80;91.80;;;;;;5145283;27;20572;-39
2021/05/10 02:33:12;;;;;;;2.07;1.87;;;17.70;92.40;;;;;;5143747;27;20437;-39
2021/05/10 02:35:42;;;;;;;2.27;2.00;;;17.60;93.20;;;;;;5142834;27;20534;-40
2021/05/10 02:38:13;;;;;;;3.40;2.10;;;17.60;93.70;;;;;;5143854;27;20462;-40
2021/05/10 02:40:44;;;;;;;2.10;1.70;;;17.50;94.30;;;;;;5135259;27;20471;-36
2021/05/10 02:43:14;;;;;;;3.50;2.40;;;17.40;95.10;;;;;;5140424;27;20544;-38
2021/05/10 02:45:45;;;;;;;2.13;1.97;;;17.30;95.80;;;;;;5141759;27;20484;-37
2021/05/10 02:48:15;;;;;;;3.60;2.20;;;17.30;95.90;;;;;;5139955;27;20452;-40
2021/05/10 02:50:45;;;;;;;3.10;2.37;;;17.20;96.30;;;;;;5145496;27;20441;-40
2021/05/10 02:53:16;;;;;;;3.00;2.80;;;17.00;97.20;;;;;;5143991;27;20928;-40
2021/05/10 02:55:48;;;;;;;3.10;2.80;;;16.90;97.70;;;;;;5143069;27;20477;-39
2021/05/10 02:58:18;;;;;;;3.47;3.17;;;16.80;98.40;;;;;;5144275;27;20955;-40
2021/05/10 03:00:47;;;;;;;3.47;2.97;;;16.70;98.80;;;;;;5144026;27;20473;-40
2021/05/10 03:03:17;;;;;;;2.97;2.70;;;16.70;99.10;;;;;;5136885;27;20802;-38
2021/05/10 03:05:47;;;;;;;3.90;2.43;;;16.60;98.90;;;;;;5145296;27;20469;-40
2021/05/10 03:08:17;;;;;;;1.97;1.87;;;16.60;99.50;;;;;;5144053;27;20980;-39
2021/05/10 03:10:48;;;;;;;2.57;2.40;;;16.50;99.20;;;;;;5144067;27;20853;-40
2021/05/10 03:13:18;;;;;;;2.13;1.30;;;16.50;97.20;;;;;;5135429;27;20448;-39
2021/05/10 03:15:48;;;;;;;1.63;1.53;;;16.40;94.70;;;;;;5142922;27;20441;-38
2021/05/10 03:18:18;;;;;;;2.10;1.37;;;16.30;94.60;;;;;;5140625;27;20448;-38
2021/05/10 03:20:48;;;;;;;2.00;1.47;;;16.20;94.90;;;;;;5144201;27;20559;-40
2021/05/10 03:23:18;;;;;;;1.67;1.57;;;16.00;95.70;;;;;;5135236;27;20441;-39
2021/05/10 03:25:49;;;;;;;2.77;1.80;;;15.90;96.40;;;;;;5142988;27;20552;-39
2021/05/10 03:28:19;;;;;;;2.80;1.97;;;15.80;97.20;;;;;;5141886;27;20472;-40
2021/05/10 03:30:49;;;;;;;1.70;1.60;;;15.80;98.00;;;;;;5141134;27;20513;-39
2021/05/10 03:33:19;;;;;;;1.87;1.77;;;15.60;98.50;;;;;;5138901;27;20908;-39
2021/05/10 03:35:49;;;;;;;1.60;1.50;;;15.60;98.90;;;;;;5141191;27;20446;-39
2021/05/10 03:38:19;;;;;;;8.63;2.17;;;15.60;98.80;;;;;;5137322;27;20433;-40
2021/05/10 03:40:50;;;;;;;2.47;2.00;;;15.50;99.30;;;;;;5138801;27;21664;-39
2021/05/10 03:43:21;;;;;;;2.43;2.10;;;15.40;99.90;;;;;;5139555;27;20437;-38
2021/05/10 03:45:51;;;;;;;3.03;2.83;;;15.30;99.90;;;;;;5140942;27;20570;-40
2021/05/10 03:48:24;;;;;;;2.53;2.20;;;15.30;99.90;;;;;;5143810;28;20456;-38
2021/05/10 03:50:54;;;;;;;4.70;3.93;;;15.30;99.90;;;;;;5147166;27;20472;-39
2021/05/10 03:53:24;;;;;;;2.43;2.23;;;15.30;99.90;;;;;;5150467;27;20483;-37
2021/05/10 03:56:03;;;;;;;4.40;2.37;;;15.20;99.90;;;;;;5150697;27;20529;-37
2021/05/10 03:58:34;;;;;;;2.60;2.40;;;15.20;99.90;;;;;;5149815;27;20795;-37
2021/05/10 04:01:04;;;;;;;2.90;2.30;;;15.20;99.90;;;;;;5150637;27;20463;-39
2021/05/10 04:03:38;;;;;;;4.80;2.73;;;15.20;99.90;;;;;;5148642;27;20510;-39
2021/05/10 04:09:14;;;;;;;4.20;3.23;;;15.20;99.90;;;;;;5150269;27;20488;-40
2021/05/10 04:14:32;;;;;;;3.57;2.80;;;15.20;99.90;;;;;;5150930;27;21011;-36
2021/05/10 04:17:02;;;;;;;5.03;2.67;;;15.20;99.90;;;;;;5149573;27;20513;-39
2021/05/10 04:19:32;;;;;;;3.03;2.20;;;15.30;99.90;;;;;;5148614;27;20444;-39
2021/05/10 04:22:02;;;;;;;2.30;2.10;;;15.20;99.90;;;;;;5135309;27;20486;-41
2021/05/10 04:24:32;;;;;;;3.80;2.00;;;15.20;99.90;;;;;;5150075;27;20490;-40
2021/05/10 04:27:05;;;;;;;2.77;2.00;;;15.20;99.90;;;;;;5148504;27;20469;-40
2021/05/10 04:29:35;;;;;;;2.33;2.13;;;15.10;99.90;;;;;;5143518;27;20477;-38
2021/05/10 04:32:05;;;;;;;2.40;1.73;;;15.10;99.90;;;;;;5148426;27;20908;-41
2021/05/10 04:34:35;;;;;;;2.47;2.13;;;15.00;99.90;;;;;;5147990;27;20448;-39
2021/05/10 04:37:05;;;;;;;2.40;2.20;;;15.00;99.90;;;;;;5143764;27;20452;-39
2021/05/10 04:39:35;;;;;;;2.10;1.90;;;15.00;99.90;;;;;;5148546;27;20502;-40
2021/05/10 04:42:07;;;;;;;2.60;2.13;;;15.00;99.90;;;;;;5147876;27;20444;-40
2021/05/10 04:47:35;;;;;;;3.10;2.20;;;14.80;99.90;;;;;;5147188;27;20438;-40
2021/05/10 04:50:09;;;;;;;2.63;1.97;;;14.80;99.90;;;;;;5139458;27;20447;-38
2021/05/10 04:52:39;;;;;;;3.00;2.20;;;14.80;99.90;;;;;;5137299;27;20444;-39
2021/05/10 04:55:11;;;;;;;5.40;2.73;;;14.80;99.90;;;;;;5142575;27;20456;-40
2021/05/10 04:57:44;;;;;;;3.33;2.53;;;14.80;99.90;;;;;;5143573;27;20935;-40
2021/05/10 05:00:16;;;;;;;2.30;2.10;;;14.70;99.90;;;;;;5143786;27;20448;-40
2021/05/10 05:02:47;;;;;;;3.53;2.40;;;14.60;99.90;;;;;;5143637;27;20469;-38
2021/05/10 05:05:17;;;;;;;2.97;2.40;;;14.60;99.90;;;;;;5146429;27;20480;-40
2021/05/10 05:07:47;;;;;;;3.30;2.53;;;14.60;99.90;;;;;;5146964;27;20445;-37
2021/05/10 05:10:18;;;;;;;3.17;2.73;;;14.60;99.90;;;;;;5147155;27;20525;-38
2021/05/10 05:12:49;;;;;;;3.87;2.70;;;14.50;99.90;;;;;;5145271;27;20453;-40
2021/05/10 05:15:21;;;;;;;5.23;3.07;;;14.40;99.90;;;;;;5144023;27;20511;-40
2021/05/10 05:17:51;;;;;;;3.50;2.70;;;14.40;99.90;;;;;;5133267;27;20516;-39
2021/05/10 05:20:21;;;;;;;2.87;2.33;;;14.30;99.90;;;;;;5145776;27;20505;-40
2021/05/10 05:22:52;;;;;;;4.53;3.23;;;14.30;99.90;;;;;;5132880;27;20449;-40
2021/05/10 05:25:21;;;;;;;6.77;3.23;;;14.30;99.90;;;;;;5144051;27;20489;-39
2021/05/10 05:27:53;;;;;;;4.03;2.60;;;14.30;99.90;;;;;;5135730;27;20545;-37
2021/05/10 05:30:23;;;;;;;3.93;2.30;;;14.20;99.90;;;;;;5139725;27;20449;-36
2021/05/10 05:32:53;;;;;;;5.63;2.90;;;14.10;99.90;;;;;;5145338;27;20441;-38
2021/05/10 05:35:23;;;;;;;4.13;2.70;;;14.10;99.90;;;;;;5140114;27;20445;-40
2021/05/10 05:37:53;;;;;;;3.60;2.60;;;14.10;99.90;;;;;;5145210;27;20466;-38
2021/05/10 05:40:24;;;;;;;4.90;2.70;;;14.00;99.90;;;;;;5146232;27;20449;-39
2021/05/10 05:42:55;;;;;;;2.87;2.67;;;14.00;99.90;;;;;;5144514;27;20465;-37
2021/05/10 05:45:26;;;;;;;6.30;2.80;;;14.00;99.90;;;;;;5144368;27;20496;-39
2021/05/10 05:47:56;;;;;;;4.43;2.63;;;13.90;99.90;;;;;;5135184;27;20433;-37
2021/05/10 05:50:26;;;;;;;3.57;3.27;;;13.90;99.90;;;;;;5146440;27;20441;-38
2021/05/10 05:52:57;;;;;;;3.93;3.40;;;13.90;99.90;;;;;;5144227;27;20487;-38
2021/05/10 05:55:27;;;;;;;5.13;2.37;;;13.80;99.90;;;;;;5145218;27;20448;-39
2021/05/10 05:57:59;;;;;;;5.33;2.93;;;13.70;99.90;;;;;;5144504;27;20459;-39
2021/05/10 06:00:29;;;;;;;6.20;2.60;;;13.70;99.90;;;;;;5142176;27;20460;-39
2021/05/10 06:02:59;;;;;;;3.40;2.80;;;13.70;99.90;;;;;;5144155;27;20452;-40
2021/05/10 06:05:29;;;;;;;4.87;2.90;;;13.60;99.90;;;;;;5145720;27;20492;-38
2021/05/10 06:07:59;;;;;;;4.47;3.10;;;13.50;99.90;;;;;;5144772;27;20480;-39
2021/05/10 06:10:29;;;;;;;5.20;2.80;;;13.50;99.90;;;;;;5145790;27;20456;-39
2021/05/10 06:13:00;;;;;;;7.10;3.37;;;13.50;99.90;;;;;;5142799;27;20449;-38
2021/05/10 06:15:30;;;;;;;5.80;3.23;;;13.40;99.90;;;;;;5141302;27;20450;-39
2021/05/10 06:18:00;;;;;;;5.77;3.10;;;13.40;99.90;;;;;;5143624;27;20453;-39
2021/05/10 06:20:31;;;;;;;5.63;3.63;;;13.30;99.90;;;;;;5144566;27;20502;-38
2021/05/10 06:23:02;;;;;;;5.33;3.93;;;13.30;99.90;;;;;;5143175;27;20441;-37
2021/05/10 06:25:32;;;;;;;5.27;3.00;;;13.30;99.90;;;;;;5144776;27;20521;-39
2021/05/10 06:28:04;;;;;;;4.20;3.60;;;13.20;99.90;;;;;;5143900;27;20448;-39
2021/05/10 06:30:34;;;;;;;5.77;2.73;;;13.10;99.90;;;;;;5143430;27;20924;-37
2021/05/10 06:33:04;;;;;;;4.93;3.13;;;13.10;99.90;;;;;;5145067;27;20458;-34
2021/05/10 06:35:34;;;;;;;3.77;3.10;;;13.20;99.90;;;;;;5145139;27;20441;-37
2021/05/10 06:38:04;;;;;;;6.33;3.37;;;13.10;99.90;;;;;;5144042;27;20453;-38
2021/05/10 06:40:34;;;;;;;4.90;3.13;;;13.10;99.90;;;;;;5130776;27;20484;-38
2021/05/10 06:43:05;;;;;;;3.90;3.10;;;13.00;99.90;;;;;;5127099;27;20445;-39
2021/05/10 06:45:38;;;;;;;5.40;3.70;;;12.90;99.90;;;;;;5143734;27;20496;-36
2021/05/10 06:48:08;;;;;;;3.63;2.80;;;12.90;99.90;;;;;;5145073;27;20498;-39
2021/05/10 06:50:38;;;;;;;4.33;2.70;;;12.80;99.90;;;;;;5144792;27;20448;-37
2021/05/10 06:53:08;;;;;;;5.60;3.10;;;12.80;99.90;;;;;;5141782;27;20460;-38
2021/05/10 06:55:38;;;;;;;5.67;3.00;;;12.70;99.90;;;;;;5144756;27;20822;-38
2021/05/10 06:58:12;;;;;;;3.77;3.00;;;12.70;99.90;;;;;;5143424;27;20502;-36
2021/05/10 07:00:42;;;;;;;7.10;2.97;;;12.60;99.90;;;;;;5143667;27;20508;-35
2021/05/10 07:03:12;;;;;;;5.00;3.03;;;12.60;99.90;;;;;;5132388;27;20449;-36
2021/05/10 07:05:44;;;;;;;4.43;2.70;;;12.60;99.90;;;;;;5143638;27;20484;-38
2021/05/10 07:08:15;;;;;;;4.57;2.53;;;12.60;99.90;;;;;;5141301;27;20449;-36
2021/05/10 07:10:48;;;;;;;9.73;3.20;;;12.60;99.90;;;;;;5144199;27;20528;-37
2021/05/10 07:13:21;;;;;;;4.70;3.10;;;12.60;99.90;;;;;;5140235;27;20449;-37
2021/05/10 07:15:51;;;;;;;6.17;3.10;;;12.60;99.90;;;;;;5143563;27;20462;-36
2021/05/10 07:18:21;;;;;;;4.57;3.00;;;12.50;99.90;;;;;;5144236;27;20501;-36
2021/05/10 07:20:51;;;;;;;3.40;3.10;;;12.50;99.90;;;;;;5144285;27;20485;-40
2021/05/10 07:23:22;;;;;;;4.55;2.90;;;12.40;99.90;;;;;;5143619;27;20449;-37
2021/05/10 07:25:56;;;;;;;5.07;3.30;;;12.40;99.90;;;;;;5137361;27;20214;-34
2021/05/10 07:28:27;;;;;;;4.93;2.92;;;12.30;99.90;;;;;;5142800;27;20191;-39
2021/05/10 07:30:57;;;;;;;4.40;3.10;;;12.30;99.90;;;;;;5144350;27;20191;-41
2021/05/10 07:33:27;;;;;;;6.50;3.03;;;12.30;99.90;;;;;;5137346;27;20452;-36
2021/05/10 07:35:57;;;;;;;4.00;3.60;;;12.30;99.90;;;;;;5144288;27;20203;-38
2021/05/10 07:38:27;;;;;;;4.40;3.30;;;12.20;99.90;;;;;;5143551;27;20646;-39
2021/05/10 07:40:57;;;;;;;3.90;3.40;;;12.20;99.90;;;;;;5136143;27;20533;-39
2021/05/10 07:44:05;;;;;;;7.53;3.50;;;12.20;99.90;;;;;;5129988;27;20498;-39
2021/05/10 07:46:36;;;;;;;7.63;3.35;;;12.20;99.90;;;;;;5131262;27;20541;-35
2021/05/10 07:49:07;;;;;;;4.20;3.30;;;12.10;99.90;;;;;;5140944;28;20207;-36
2021/05/10 07:51:37;;;;;;;5.63;3.78;;;12.10;99.90;;;;;;5135906;28;20513;-39
2021/05/10 07:54:06;;;;;;;4.80;3.28;;;12.10;99.90;;;;;;5143471;28;20207;-36
2021/05/10 07:56:36;;;;;;;4.00;3.00;;;12.00;99.90;;;;;;5142297;28;20247;-35
2021/05/10 07:59:09;;;;;;;3.60;3.30;;;12.00;99.90;;;;;;5143646;28;20609;-37
2021/05/10 08:01:40;;;;;;;5.10;3.30;;;12.00;99.90;;;;;;5142343;28;20203;-38
2021/05/10 08:04:10;;;;;;;3.93;2.97;;;11.90;99.90;;;;;;5138836;28;20298;-36
2021/05/10 08:06:40;;;;;;;4.40;3.67;;;11.80;99.90;;;;;;5142456;28;20509;-38
2021/05/10 08:09:10;;;;;;;5.45;3.13;;;11.70;99.90;;;;;;5132984;28;20456;-38
2021/05/10 08:11:40;;;;;;;4.15;3.40;;;11.70;99.90;;;;;;5143122;28;20203;-35
2021/05/10 08:14:10;;;;;;;5.93;3.70;;;11.70;99.90;;;;;;5137696;28;20200;-37
2021/05/10 08:16:41;;;;;;;4.27;3.50;;;11.60;99.90;;;;;;5143527;28;20188;-38
2021/05/10 08:19:12;;;;;;;3.97;3.58;;;11.60;99.90;;;;;;5143521;28;20457;-38
2021/05/10 08:21:43;;;;;;;5.40;4.05;;;11.50;99.90;;;;;;5143190;28;20200;-38
2021/05/10 08:24:13;;;;;;;6.40;3.53;;;11.50;99.90;;;;;;5143769;28;20200;-38
2021/05/10 08:26:42;;;;;;;4.30;3.33;;;11.50;99.90;;;;;;5142344;28;20565;-39
2021/05/10 08:29:12;;;;;;;6.43;3.67;;;11.40;99.90;;;;;;5142906;28;20227;-34
2021/05/10 08:31:44;;;;;;;3.38;2.53;;;11.30;99.90;;;;;;5143257;28;20251;-36
2021/05/10 08:34:15;;;;;;;4.30;3.07;;;11.20;99.90;;;;;;5142923;28;20207;-36
2021/05/10 08:36:46;;;;;;;5.07;3.75;;;11.20;99.90;;;;;;5145221;27;20556;-37
2021/05/10 08:39:16;;;;;;;5.40;4.03;;;11.10;99.90;;;;;;5134298;27;20199;-35
2021/05/10 08:41:46;;;;;;;5.63;3.70;;;11.20;99.90;;;;;;5143746;27;20941;-38
2021/05/10 08:44:16;;;;;;;7.10;4.37;;;11.20;99.90;;;;;;5148072;27;20223;-36
2021/05/10 08:46:48;;;;;;;8.60;3.93;;;11.20;99.90;;;;;;5146668;27;20568;-37
2021/05/10 08:49:20;;;;;;;6.65;3.92;;;11.20;99.90;;;;;;5147129;27;20453;-36
2021/05/10 08:51:52;;;;;;;6.20;4.03;;;11.20;99.90;;;;;;5146686;27;20222;-37
2021/05/10 08:54:24;;;;;;;6.07;3.20;;;11.20;99.90;;;;;;5135145;27;20498;-39
2021/05/10 08:56:55;;;;;;;4.07;3.53;;;11.10;99.90;;;;;;5146100;27;20207;-36
2021/05/10 08:59:25;;;;;;;4.68;4.18;;;11.10;99.90;;;;;;5147185;27;20195;-37
2021/05/10 09:01:59;;;;;;;5.50;3.30;;;11.10;99.90;;;;;;5143045;27;20287;-36
2021/05/10 09:04:32;;;;;;;3.80;3.35;;;11.00;99.90;;;;;;5147153;27;20199;-38
2021/05/10 09:07:18;;;;;;;4.00;3.60;;;11.00;99.90;;;;;;5143543;27;20333;-36
2021/05/10 09:09:58;;;;;;;4.82;3.15;;;11.00;99.90;;;;;;5146316;27;20199;-37
2021/05/10 09:12:45;;;;;;;4.30;3.72;;;11.00;99.90;;;;;;5137376;27;20216;-37
2021/05/10 09:15:23;;;;;;;5.40;3.60;;;10.90;99.90;;;;;;5146974;27;20228;-39
2021/05/10 09:17:56;;;;;;;4.03;3.58;;;10.90;99.90;;;;;;5145885;27;20249;-37
2021/05/10 09:20:28;;;;;;;5.78;3.42;;;10.90;99.90;;;;;;5147307;27;20635;-34
2021/05/10 09:22:59;;;;;;;6.15;3.95;;;10.80;99.90;;;;;;5146141;27;20279;-38
2021/05/10 09:25:34;;;;;;;4.75;3.50;;;10.80;99.90;;;;;;5146794;27;20263;-38
2021/05/10 09:28:23;;;;;;;5.07;3.72;;;10.80;99.90;;;;;;5144969;27;20574;-37
2021/05/10 09:30:54;;;;;;;9.52;3.58;;;10.80;99.90;;;;;;5143986;27;20192;-38
2021/05/10 09:33:46;;;;;;;4.43;3.20;;;10.70;99.90;;;;;;5129800;27;20263;-38
2021/05/10 09:36:34;;;;;;;5.18;3.70;;;10.70;99.90;;;;;;5146978;27;20207;-38
2021/05/10 09:39:06;;;;;;;6.30;3.47;;;10.60;99.90;;;;;;5146293;27;20195;-36
2021/05/10 09:41:59;;;;;;;5.38;3.95;;;10.50;99.90;;;;;;5146138;27;20250;-38
2021/05/10 09:44:41;;;;;;;7.00;4.40;;;10.40;99.90;;;;;;5135813;27;20227;-35
2021/05/10 09:47:12;;;;;;;5.25;3.75;;;10.30;99.90;;;;;;5145276;27;20222;-38
2021/05/10 09:49:48;;;;;;;5.45;3.72;;;10.30;99.90;;;;;;5145821;27;20651;-36
2021/05/10 09:52:22;;;;;;;4.20;3.45;;;10.30;99.90;;;;;;5144404;27;20206;-38
2021/05/10 09:54:56;;;;;;;4.95;4.30;;;10.30;99.90;;;;;;5145854;27;20205;-34
2021/05/10 09:57:30;;;;;;;5.32;3.20;;;10.30;99.90;;;;;;5145225;27;20183;-36
2021/05/10 10:00:17;;;;;;;5.30;3.10;;;10.30;99.90;;;;;;5145959;27;20256;-36
2021/05/10 10:02:46;;;;;;;5.10;4.07;;;10.30;99.90;;;;;;5145022;27;20195;-33
2021/05/10 10:05:21;;;;;;;6.25;4.13;;;10.30;99.90;;;;;;5144067;27;20228;-37
2021/05/10 10:07:51;;;;;;;8.40;3.97;;;10.40;99.90;;;;;;5140583;27;20203;-36
2021/05/10 10:10:21;;;;;;;3.10;2.90;;;10.40;99.90;;;;;;5135611;27;20568;-37
2021/05/10 10:12:51;;;;;;;3.78;3.05;;;10.40;99.90;;;;;;5134508;27;20199;-35
2021/05/10 10:15:23;;;;;;;3.45;3.15;;;10.50;99.90;;;;;;5132205;27;20279;-35
2021/05/10 10:17:53;;;;;;;4.75;3.47;;;10.50;99.90;;;;;;5132188;27;20203;-38
2021/05/10 10:20:24;;;;;;;4.22;3.50;;;10.40;99.90;;;;;;5145301;27;20538;-38
2021/05/10 10:22:55;;;;;;;6.05;4.28;;;10.40;99.90;;;;;;5144472;27;20267;-36
2021/05/10 10:25:26;;;;;;;4.60;3.67;;;10.40;99.90;;;;;;5144640;27;20248;-38
2021/05/10 10:28:18;;;;;;;4.35;3.03;;;10.40;99.90;;;;;;5127558;27;20310;-38
2021/05/10 10:30:57;;;;;;;4.10;3.60;;;10.40;99.90;;;;;;5145419;27;20260;-37
2021/05/10 10:33:37;;;;;;;4.40;2.97;;;10.40;99.90;;;;;;5144971;27;20624;-38
2021/05/10 10:36:16;;;;;;;5.05;3.88;;;10.30;99.90;;;;;;5144734;27;20235;-38
2021/05/10 10:38:47;;;;;;;3.97;3.28;;;10.20;99.90;;;;;;5140765;27;20200;-38
2021/05/10 10:41:21;;;;;;;5.45;3.50;;;10.30;99.90;;;;;;5140064;27;20195;-37
2021/05/10 10:43:53;;;;;;;3.67;2.95;;;10.30;99.90;;;;;;5140414;27;20235;-36
2021/05/10 10:46:28;;;;;;;3.97;2.90;;;10.20;99.90;;;;;;5145641;27;20275;-33
2021/05/10 10:49:20;;;;;;;4.18;2.90;;;10.20;99.90;;;;;;5144857;27;20224;-35
2021/05/10 10:51:54;;;;;;;5.03;3.55;;;10.20;99.90;;;;;;5143990;27;20199;-35
2021/05/10 10:54:26;;;;;;;4.22;2.90;;;10.20;99.90;;;;;;5145050;27;20652;-36
2021/05/10 10:56:59;;;;;;;3.90;2.80;;;10.10;99.90;;;;;;5143423;27;20199;-38
2021/05/10 10:59:36;;;;;;;4.97;3.30;;;10.10;99.90;;;;;;5143773;27;20252;-36
2021/05/10 11:02:17;;;;;;;3.20;2.75;;;10.10;99.90;;;;;;5144169;27;20191;-38
2021/05/10 11:05:06;;;;;;;4.03;3.38;;;10.10;99.90;;;;;;5143428;27;20195;-38
2021/05/10 11:07:57;;;;;;;3.80;2.67;;;10.00;99.90;;;;;;5144468;27;20238;-38
2021/05/10 11:10:43;;;;;;;6.20;3.10;;;9.90;99.90;;;;;;5144214;27;20200;-36
2021/05/10 11:13:36;;;;;;;5.47;2.90;;;9.80;99.90;;;;;;5141251;27;20252;-38
2021/05/10 11:16:09;;;;;;;4.07;3.65;;;9.80;99.90;;;;;;5144988;27;20591;-38
2021/05/10 11:18:47;;;;;;;5.38;3.15;;;9.80;99.90;;;;;;5143653;27;20282;-38
2021/05/10 11:21:43;;;;;;;2.70;2.50;;;9.80;99.90;;;;;;5144693;27;20221;-35
2021/05/10 11:24:26;;;;;;;3.75;3.40;;;9.80;99.90;;;;;;5038084;28;20257;-37
2021/05/10 11:27:00;;;;;;;6.50;3.40;;;9.80;99.90;;;;;;5025907;28;20218;-36
2021/05/10 11:29:45;;;;;;;3.85;2.65;;;9.70;99.90;;;;;;5040447;28;20195;-33
2021/05/10 11:32:35;;;;;;;4.35;3.50;;;9.70;99.90;;;;;;5040579;28;20198;-38
2021/05/10 11:35:28;;;;;;;4.70;3.97;;;9.70;99.90;;;;;;5031640;28;20261;-38
2021/05/10 11:38:05;;;;;;;5.15;3.30;;;9.60;99.90;;;;;;5033705;28;20191;-38
2021/05/10 11:40:37;;;;;;;3.83;2.90;;;9.50;99.90;;;;;;5038740;28;20203;-36
2021/05/10 11:43:22;;;;;;;5.80;3.25;;;9.40;99.90;;;;;;5039915;28;20246;-38
2021/05/10 11:45:53;;;;;;;5.38;3.30;;;9.40;99.90;;;;;;5040897;28;20245;-36
2021/05/10 11:48:42;;;;;;;4.85;3.33;;;9.40;99.90;;;;;;5033263;28;20214;-39
2021/05/10 11:51:22;;;;;;;5.63;3.00;;;9.30;99.90;;;;;;5038192;28;20237;-34
2021/05/10 11:53:59;;;;;;;3.88;3.00;;;9.30;99.90;;;;;;5032758;28;20218;-37
2021/05/10 11:56:32;;;;;;;6.80;3.30;;;9.20;99.90;;;;;;5030747;28;20203;-38
2021/05/10 11:59:10;;;;;;;3.30;3.00;;;9.20;99.90;;;;;;5051035;28;20202;-37
2021/05/10 12:01:42;;;;;;;4.03;2.90;;;9.20;99.90;;;;;;5143464;28;20269;-35
2021/05/10 12:04:23;;;;;;;3.83;3.20;;;9.20;99.90;;;;;;5143877;28;20206;-36
2021/05/10 12:06:53;;;;;;;3.22;2.70;;;9.20;99.90;;;;;;5141076;28;20678;-36
2021/05/10 12:09:53;;;;;;;4.85;3.00;;;9.20;99.90;;;;;;5144141;28;20252;-36
2021/05/10 12:12:35;;;;;;;4.07;3.13;;;9.10;99.90;;;;;;5146999;27;20199;-36
2021/05/10 12:15:13;;;;;;;4.00;3.00;;;9.10;99.90;;;;;;5145460;27;20195;-38
2021/05/10 12:17:45;;;;;;;6.15;3.00;;;9.10;99.90;;;;;;5146252;27;20204;-37
2021/05/10 12:20:17;;;;;;;4.47;2.80;;;9.10;99.90;;;;;;5147562;27;20582;-32
2021/05/10 12:22:48;;;;;;;3.67;3.08;;;9.00;99.90;;;;;;5145554;27;20199;-36
2021/05/10 12:25:26;;;;;;;4.20;3.25;;;9.00;99.90;;;;;;5147786;27;20214;-38
2021/05/10 12:28:06;;;;;;;2.83;2.33;;;8.90;99.90;;;;;;5147423;27;20238;-36
2021/05/10 12:30:38;;;;;;;5.40;3.35;;;8.90;99.90;;;;;;5147484;27;20237;-33
2021/05/10 12:33:09;;;;;;;5.85;3.50;;;8.90;99.90;;;;;;5146839;27;20202;-36
2021/05/10 12:35:40;;;;;;;4.60;3.30;;;8.90;99.90;;;;;;5131391;27;20581;-35
2021/05/10 12:38:11;;;;;;;4.65;3.22;;;9.00;99.90;;;;;;5147323;27;20206;-37
2021/05/10 12:40:43;;;;;;;4.32;3.45;;;8.90;99.90;;;;;;5144428;27;20203;-38
2021/05/10 12:43:15;;;;;;;6.38;3.28;;;8.90;99.90;;;;;;5146857;27;20252;-37
2021/05/10 12:45:48;;;;;;;3.58;3.22;;;8.90;99.90;;;;;;5131102;27;21065;-38
2021/05/10 12:48:20;;;;;;;8.93;3.40;;;8.80;99.90;;;;;;5147511;27;20192;-33
2021/05/10 12:50:54;;;;;;;3.78;3.25;;;8.80;99.90;;;;;;5141618;27;20202;-38
2021/05/10 12:53:31;;;;;;;4.03;3.63;;;8.80;99.90;;;;;;5146975;27;20198;-36
2021/05/10 12:56:03;;;;;;;2.72;2.45;;;8.70;99.90;;;;;;5146949;27;20294;-37
2021/05/10 12:58:39;;;;;;;4.00;3.33;;;8.70;99.90;;;;;;5142707;27;20210;-36
2021/05/10 13:01:16;;;;;;;4.07;3.00;;;8.70;99.90;;;;;;5147432;27;20195;-38
2021/05/10 13:03:46;;;;;;;7.28;4.03;;;8.80;99.90;;;;;;5146504;27;20194;-35
2021/05/10 13:06:26;;;;;;;7.43;3.30;;;8.80;99.90;;;;;;5143278;27;20223;-34
2021/05/10 13:08:56;;;;;;;4.70;3.22;;;8.80;99.90;;;;;;5147108;27;20259;-37
2021/05/10 13:11:36;;;;;;;4.10;3.70;;;8.80;99.90;;;;;;5146312;27;20207;-38
2021/05/10 13:14:20;;;;;;;4.28;3.88;;;8.80;99.90;;;;;;5147561;27;20199;-38
2021/05/10 13:16:59;;;;;;;4.10;3.70;;;8.80;99.90;;;;;;5146243;27;20406;-36
2021/05/10 13:31:15;;;;;;;4.22;3.47;;;9.10;99.90;;;;;;5075255;28;20275;-38
2021/05/10 13:33:53;;;;;;;5.20;4.00;;;9.20;99.90;;;;;;5082582;28;20288;-35
2021/05/10 13:36:30;;;;;;;4.70;4.30;;;9.20;99.90;;;;;;5067522;28;20205;-33
2021/05/10 13:39:01;;;;;;;5.40;2.90;;;9.40;99.90;;;;;;5082424;28;20193;-37